Ronks, Pennsylvania
Current Conditions -  °F | °C
As of 2:53 AM on Thursday 18 Dec 2014 (Local Time) from KLNS Reporting Station
Clear Clear  
Wind Chill: -5°   Ceiling: Unl
Heat Index:   Visibility: 10mi
Dew Point: -8°   Wind: 14mph
Humidity: 52%   Direction: 290°WNW
Pressure: 30.03"   Gusts: 24mph
Location:  40.03°N, 76.17°W
Report Text: KLNS 180753Z AUTO 29012G21KT 10SM CLR 01/M08 A3003 RMK AO2 PK WND 30032/0700 SLP170 T00061083
Loading
Personal Weather Stations






























Interactive Weather Map New forecast layout! Learn more

10-Day Weather Forecast

Advertisements
Track Severe Weather on mobile